sensor_id;sensor_type;location;lat;lon;timestamp;P1;durP1;ratioP1;P2;durP2;ratioP2
48181;SDS011;33976;47.436;18.876;2022-08-21T00:02:21;4.57;;;2.97;;
48181;SDS011;33976;47.436;18.876;2022-08-21T00:04:51;4.80;;;2.67;;
48181;SDS011;33976;47.436;18.876;2022-08-21T00:07:24;4.85;;;2.83;;
48181;SDS011;33976;47.436;18.876;2022-08-21T00:09:53;4.55;;;2.70;;
48181;SDS011;33976;47.436;18.876;2022-08-21T00:12:21;5.45;;;3.15;;
48181;SDS011;33976;47.436;18.876;2022-08-21T00:14:48;5.62;;;2.87;;
48181;SDS011;33976;47.436;18.876;2022-08-21T00:17:23;5.22;;;3.55;;
48181;SDS011;33976;47.436;18.876;2022-08-21T00:19:51;4.75;;;2.87;;
48181;SDS011;33976;47.436;18.876;2022-08-21T00:22:19;5.50;;;3.45;;
48181;SDS011;33976;47.436;18.876;2022-08-21T00:24:47;4.62;;;2.72;;
48181;SDS011;33976;47.436;18.876;2022-08-21T00:27:15;5.12;;;3.10;;
48181;SDS011;33976;47.436;18.876;2022-08-21T00:29:42;5.25;;;3.28;;
48181;SDS011;33976;47.436;18.876;2022-08-21T00:32:11;4.07;;;2.80;;
48181;SDS011;33976;47.436;18.876;2022-08-21T00:34:39;4.50;;;3.05;;
48181;SDS011;33976;47.436;18.876;2022-08-21T00:37:06;4.97;;;2.95;;
48181;SDS011;33976;47.436;18.876;2022-08-21T00:39:35;4.37;;;2.62;;
48181;SDS011;33976;47.436;18.876;2022-08-21T00:42:03;4.62;;;3.03;;
48181;SDS011;33976;47.436;18.876;2022-08-21T00:44:31;4.45;;;2.60;;
48181;SDS011;33976;47.436;18.876;2022-08-21T00:47:00;4.43;;;2.80;;
48181;SDS011;33976;47.436;18.876;2022-08-21T00:49:28;5.80;;;2.62;;
48181;SDS011;33976;47.436;18.876;2022-08-21T00:51:57;4.53;;;3.08;;
48181;SDS011;33976;47.436;18.876;2022-08-21T00:54:27;4.25;;;2.85;;
48181;SDS011;33976;47.436;18.876;2022-08-21T00:56:58;4.55;;;2.70;;
48181;SDS011;33976;47.436;18.876;2022-08-21T00:59:32;4.47;;;3.00;;
48181;SDS011;33976;47.436;18.876;2022-08-21T01:02:02;5.70;;;3.12;;
48181;SDS011;33976;47.436;18.876;2022-08-21T01:04:32;5.43;;;3.42;;
48181;SDS011;33976;47.436;18.876;2022-08-21T01:07:00;6.90;;;3.37;;
48181;SDS011;33976;47.436;18.876;2022-08-21T01:09:28;5.37;;;3.25;;
48181;SDS011;33976;47.436;18.876;2022-08-21T01:11:56;5.10;;;3.10;;
48181;SDS011;33976;47.436;18.876;2022-08-21T01:14:25;5.80;;;3.55;;
48181;SDS011;33976;47.436;18.876;2022-08-21T01:16:53;5.90;;;3.33;;
48181;SDS011;33976;47.436;18.876;2022-08-21T01:19:22;5.93;;;3.08;;
48181;SDS011;33976;47.436;18.876;2022-08-21T01:21:50;5.65;;;3.33;;
48181;SDS011;33976;47.436;18.876;2022-08-21T01:24:18;6.40;;;3.60;;
48181;SDS011;33976;47.436;18.876;2022-08-21T01:26:46;7.80;;;3.47;;
48181;SDS011;33976;47.436;18.876;2022-08-21T01:29:20;5.90;;;3.60;;
48181;SDS011;33976;47.436;18.876;2022-08-21T01:31:56;5.85;;;3.37;;
48181;SDS011;33976;47.436;18.876;2022-08-21T01:34:25;8.63;;;3.28;;
48181;SDS011;33976;47.436;18.876;2022-08-21T01:36:53;6.43;;;3.30;;
48181;SDS011;33976;47.436;18.876;2022-08-21T01:39:21;5.15;;;3.20;;
48181;SDS011;33976;47.436;18.876;2022-08-21T01:41:49;6.20;;;3.25;;
48181;SDS011;33976;47.436;18.876;2022-08-21T01:44:19;8.25;;;3.65;;
48181;SDS011;33976;47.436;18.876;2022-08-21T01:46:49;6.47;;;3.50;;
48181;SDS011;33976;47.436;18.876;2022-08-21T01:49:18;7.45;;;3.78;;
48181;SDS011;33976;47.436;18.876;2022-08-21T01:51:46;6.70;;;3.60;;
48181;SDS011;33976;47.436;18.876;2022-08-21T01:54:14;6.78;;;3.60;;
48181;SDS011;33976;47.436;18.876;2022-08-21T01:56:43;4.87;;;2.92;;
48181;SDS011;33976;47.436;18.876;2022-08-21T01:59:13;5.87;;;3.67;;
48181;SDS011;33976;47.436;18.876;2022-08-21T02:01:42;5.15;;;3.12;;
48181;SDS011;33976;47.436;18.876;2022-08-21T02:04:10;5.55;;;3.42;;
48181;SDS011;33976;47.436;18.876;2022-08-21T02:06:38;6.47;;;3.70;;
48181;SDS011;33976;47.436;18.876;2022-08-21T02:09:06;7.03;;;4.03;;
48181;SDS011;33976;47.436;18.876;2022-08-21T02:11:37;5.72;;;3.37;;
48181;SDS011;33976;47.436;18.876;2022-08-21T02:14:12;7.62;;;3.67;;
48181;SDS011;33976;47.436;18.876;2022-08-21T02:16:59;6.37;;;3.55;;
48181;SDS011;33976;47.436;18.876;2022-08-21T02:19:36;8.13;;;3.90;;
48181;SDS011;33976;47.436;18.876;2022-08-21T02:22:08;6.32;;;3.25;;
48181;SDS011;33976;47.436;18.876;2022-08-21T02:24:36;6.95;;;3.60;;
48181;SDS011;33976;47.436;18.876;2022-08-21T02:27:22;8.50;;;4.00;;
48181;SDS011;33976;47.436;18.876;2022-08-21T02:29:53;5.65;;;3.50;;
48181;SDS011;33976;47.436;18.876;2022-08-21T02:32:22;8.23;;;4.47;;
48181;SDS011;33976;47.436;18.876;2022-08-21T02:34:50;7.50;;;4.22;;
48181;SDS011;33976;47.436;18.876;2022-08-21T02:37:18;7.62;;;4.05;;
48181;SDS011;33976;47.436;18.876;2022-08-21T02:39:46;8.13;;;4.10;;
48181;SDS011;33976;47.436;18.876;2022-08-21T02:42:14;6.12;;;3.55;;
48181;SDS011;33976;47.436;18.876;2022-08-21T02:44:43;7.47;;;3.62;;
48181;SDS011;33976;47.436;18.876;2022-08-21T02:47:11;8.98;;;5.00;;
48181;SDS011;33976;47.436;18.876;2022-08-21T02:49:39;6.82;;;4.55;;
48181;SDS011;33976;47.436;18.876;2022-08-21T02:52:06;7.30;;;4.28;;
48181;SDS011;33976;47.436;18.876;2022-08-21T02:54:35;7.78;;;4.30;;
48181;SDS011;33976;47.436;18.876;2022-08-21T02:57:02;8.30;;;4.80;;
48181;SDS011;33976;47.436;18.876;2022-08-21T02:59:30;7.65;;;4.50;;
48181;SDS011;33976;47.436;18.876;2022-08-21T03:01:59;7.82;;;4.72;;
48181;SDS011;33976;47.436;18.876;2022-08-21T03:04:27;8.43;;;4.55;;
48181;SDS011;33976;47.436;18.876;2022-08-21T03:06:54;8.63;;;4.53;;
48181;SDS011;33976;47.436;18.876;2022-08-21T03:09:23;9.85;;;5.15;;
48181;SDS011;33976;47.436;18.876;2022-08-21T03:11:51;8.02;;;4.68;;
48181;SDS011;33976;47.436;18.876;2022-08-21T03:14:19;9.73;;;5.18;;
48181;SDS011;33976;47.436;18.876;2022-08-21T03:16:47;8.00;;;4.10;;
48181;SDS011;33976;47.436;18.876;2022-08-21T03:19:15;8.25;;;4.25;;
48181;SDS011;33976;47.436;18.876;2022-08-21T03:21:43;8.82;;;5.05;;
48181;SDS011;33976;47.436;18.876;2022-08-21T03:24:11;12.68;;;5.68;;
48181;SDS011;33976;47.436;18.876;2022-08-21T03:26:39;8.77;;;4.78;;
48181;SDS011;33976;47.436;18.876;2022-08-21T03:29:07;8.20;;;5.00;;
48181;SDS011;33976;47.436;18.876;2022-08-21T03:31:35;9.30;;;5.97;;
48181;SDS011;33976;47.436;18.876;2022-08-21T03:34:03;8.40;;;5.40;;
48181;SDS011;33976;47.436;18.876;2022-08-21T03:36:31;10.75;;;5.12;;
48181;SDS011;33976;47.436;18.876;2022-08-21T03:38:59;10.00;;;5.55;;
48181;SDS011;33976;47.436;18.876;2022-08-21T03:41:27;8.95;;;5.35;;
48181;SDS011;33976;47.436;18.876;2022-08-21T03:43:55;9.45;;;4.87;;
48181;SDS011;33976;47.436;18.876;2022-08-21T03:46:23;9.57;;;5.75;;
48181;SDS011;33976;47.436;18.876;2022-08-21T03:48:51;10.88;;;5.35;;
48181;SDS011;33976;47.436;18.876;2022-08-21T03:51:19;10.18;;;5.75;;
48181;SDS011;33976;47.436;18.876;2022-08-21T03:53:48;12.18;;;6.72;;
48181;SDS011;33976;47.436;18.876;2022-08-21T03:56:15;13.43;;;6.22;;
48181;SDS011;33976;47.436;18.876;2022-08-21T03:58:43;11.40;;;5.90;;
48181;SDS011;33976;47.436;18.876;2022-08-21T04:01:12;15.38;;;5.78;;
48181;SDS011;33976;47.436;18.876;2022-08-21T04:03:41;10.63;;;6.22;;
48181;SDS011;33976;47.436;18.876;2022-08-21T04:06:09;12.95;;;7.07;;
48181;SDS011;33976;47.436;18.876;2022-08-21T04:08:37;11.73;;;5.68;;
48181;SDS011;33976;47.436;18.876;2022-08-21T04:11:05;10.60;;;4.82;;
48181;SDS011;33976;47.436;18.876;2022-08-21T04:13:33;11.65;;;5.60;;
48181;SDS011;33976;47.436;18.876;2022-08-21T04:16:11;10.05;;;5.75;;
48181;SDS011;33976;47.436;18.876;2022-08-21T04:18:40;9.63;;;5.25;;
48181;SDS011;33976;47.436;18.876;2022-08-21T04:21:08;10.00;;;5.90;;
48181;SDS011;33976;47.436;18.876;2022-08-21T04:23:40;10.88;;;5.32;;
48181;SDS011;33976;47.436;18.876;2022-08-21T04:26:08;9.73;;;5.45;;
48181;SDS011;33976;47.436;18.876;2022-08-21T04:28:36;10.57;;;5.62;;
48181;SDS011;33976;47.436;18.876;2022-08-21T04:31:05;11.05;;;6.03;;
48181;SDS011;33976;47.436;18.876;2022-08-21T04:33:34;11.18;;;5.78;;
48181;SDS011;33976;47.436;18.876;2022-08-21T04:36:02;10.98;;;5.72;;
48181;SDS011;33976;47.436;18.876;2022-08-21T04:38:30;10.60;;;5.97;;
48181;SDS011;33976;47.436;18.876;2022-08-21T04:41:04;9.45;;;5.70;;
48181;SDS011;33976;47.436;18.876;2022-08-21T04:43:33;7.82;;;4.68;;
48181;SDS011;33976;47.436;18.876;2022-08-21T04:46:01;9.07;;;6.03;;
48181;SDS011;33976;47.436;18.876;2022-08-21T04:48:29;10.68;;;5.60;;
48181;SDS011;33976;47.436;18.876;2022-08-21T04:51:00;11.90;;;5.10;;
48181;SDS011;33976;47.436;18.876;2022-08-21T04:56:15;11.02;;;5.00;;
48181;SDS011;33976;47.436;18.876;2022-08-21T04:58:50;10.52;;;5.35;;
48181;SDS011;33976;47.436;18.876;2022-08-21T05:01:21;10.93;;;5.03;;
48181;SDS011;33976;47.436;18.876;2022-08-21T05:03:52;11.63;;;4.65;;
48181;SDS011;33976;47.436;18.876;2022-08-21T05:06:33;7.97;;;4.70;;
48181;SDS011;33976;47.436;18.876;2022-08-21T05:09:04;6.78;;;4.40;;
48181;SDS011;33976;47.436;18.876;2022-08-21T05:11:33;8.25;;;4.80;;
48181;SDS011;33976;47.436;18.876;2022-08-21T05:14:02;9.48;;;4.65;;
48181;SDS011;33976;47.436;18.876;2022-08-21T05:16:31;8.18;;;4.87;;
48181;SDS011;33976;47.436;18.876;2022-08-21T05:19:05;6.57;;;4.45;;
48181;SDS011;33976;47.436;18.876;2022-08-21T05:21:34;6.35;;;4.12;;
48181;SDS011;33976;47.436;18.876;2022-08-21T05:24:03;5.90;;;3.47;;
48181;SDS011;33976;47.436;18.876;2022-08-21T05:26:33;7.05;;;3.87;;
48181;SDS011;33976;47.436;18.876;2022-08-21T05:29:14;7.57;;;4.30;;
48181;SDS011;33976;47.436;18.876;2022-08-21T05:31:45;6.70;;;3.87;;
48181;SDS011;33976;47.436;18.876;2022-08-21T05:34:14;7.32;;;4.05;;
48181;SDS011;33976;47.436;18.876;2022-08-21T05:36:48;7.80;;;4.10;;
48181;SDS011;33976;47.436;18.876;2022-08-21T05:39:16;8.38;;;3.80;;
48181;SDS011;33976;47.436;18.876;2022-08-21T05:41:44;6.18;;;3.50;;
48181;SDS011;33976;47.436;18.876;2022-08-21T05:44:12;6.87;;;3.35;;
48181;SDS011;33976;47.436;18.876;2022-08-21T05:46:39;7.30;;;3.70;;
48181;SDS011;33976;47.436;18.876;2022-08-21T05:49:07;6.60;;;3.55;;
48181;SDS011;33976;47.436;18.876;2022-08-21T05:51:39;5.47;;;3.35;;
48181;SDS011;33976;47.436;18.876;2022-08-21T05:54:08;5.53;;;3.60;;
48181;SDS011;33976;47.436;18.876;2022-08-21T05:56:36;6.82;;;3.55;;
48181;SDS011;33976;47.436;18.876;2022-08-21T05:59:05;6.00;;;3.67;;
48181;SDS011;33976;47.436;18.876;2022-08-21T06:01:35;5.47;;;3.12;;
48181;SDS011;33976;47.436;18.876;2022-08-21T06:04:03;6.30;;;3.65;;
48181;SDS011;33976;47.436;18.876;2022-08-21T06:06:32;6.18;;;3.85;;
48181;SDS011;33976;47.436;18.876;2022-08-21T06:09:01;6.32;;;3.62;;
48181;SDS011;33976;47.436;18.876;2022-08-21T06:11:30;5.97;;;3.22;;
48181;SDS011;33976;47.436;18.876;2022-08-21T06:13:58;7.37;;;3.62;;
48181;SDS011;33976;47.436;18.876;2022-08-21T06:16:27;8.10;;;3.25;;
48181;SDS011;33976;47.436;18.876;2022-08-21T06:18:55;6.22;;;3.75;;
48181;SDS011;33976;47.436;18.876;2022-08-21T06:21:28;6.30;;;3.70;;
48181;SDS011;33976;47.436;18.876;2022-08-21T06:23:57;6.93;;;3.37;;
48181;SDS011;33976;47.436;18.876;2022-08-21T06:26:25;8.48;;;3.47;;
48181;SDS011;33976;47.436;18.876;2022-08-21T06:28:53;6.53;;;3.08;;
48181;SDS011;33976;47.436;18.876;2022-08-21T06:31:22;7.00;;;3.30;;
48181;SDS011;33976;47.436;18.876;2022-08-21T06:33:51;5.75;;;3.42;;
48181;SDS011;33976;47.436;18.876;2022-08-21T06:36:20;7.12;;;3.92;;
48181;SDS011;33976;47.436;18.876;2022-08-21T06:38:48;6.12;;;3.83;;
48181;SDS011;33976;47.436;18.876;2022-08-21T06:41:19;8.15;;;4.32;;
48181;SDS011;33976;47.436;18.876;2022-08-21T06:43:53;6.78;;;3.70;;
48181;SDS011;33976;47.436;18.876;2022-08-21T06:46:23;7.47;;;3.90;;
48181;SDS011;33976;47.436;18.876;2022-08-21T06:48:51;7.35;;;3.45;;
48181;SDS011;33976;47.436;18.876;2022-08-21T06:51:20;6.37;;;3.67;;
48181;SDS011;33976;47.436;18.876;2022-08-21T06:53:48;6.20;;;3.55;;
48181;SDS011;33976;47.436;18.876;2022-08-21T06:56:16;5.68;;;3.58;;
48181;SDS011;33976;47.436;18.876;2022-08-21T06:58:45;6.45;;;3.60;;
48181;SDS011;33976;47.436;18.876;2022-08-21T07:01:13;5.57;;;3.60;;
48181;SDS011;33976;47.436;18.876;2022-08-21T07:03:41;6.47;;;3.70;;
48181;SDS011;33976;47.436;18.876;2022-08-21T07:06:10;6.07;;;3.70;;
48181;SDS011;33976;47.436;18.876;2022-08-21T07:08:39;7.82;;;3.72;;
48181;SDS011;33976;47.436;18.876;2022-08-21T07:11:09;6.32;;;3.72;;
48181;SDS011;33976;47.436;18.876;2022-08-21T07:13:39;9.75;;;4.10;;
48181;SDS011;33976;47.436;18.876;2022-08-21T07:16:07;5.93;;;3.87;;
48181;SDS011;33976;47.436;18.876;2022-08-21T07:18:35;6.12;;;3.50;;
48181;SDS011;33976;47.436;18.876;2022-08-21T07:21:05;6.85;;;3.65;;
48181;SDS011;33976;47.436;18.876;2022-08-21T07:23:39;6.25;;;4.07;;
48181;SDS011;33976;47.436;18.876;2022-08-21T07:26:11;6.95;;;3.97;;
48181;SDS011;33976;47.436;18.876;2022-08-21T07:28:39;6.50;;;3.85;;
48181;SDS011;33976;47.436;18.876;2022-08-21T07:31:08;5.35;;;3.00;;
48181;SDS011;33976;47.436;18.876;2022-08-21T07:33:37;5.85;;;3.55;;
48181;SDS011;33976;47.436;18.876;2022-08-21T07:36:05;9.05;;;4.32;;
48181;SDS011;33976;47.436;18.876;2022-08-21T07:38:34;6.05;;;3.95;;
48181;SDS011;33976;47.436;18.876;2022-08-21T07:41:13;6.50;;;4.07;;
48181;SDS011;33976;47.436;18.876;2022-08-21T07:43:42;5.87;;;3.90;;
48181;SDS011;33976;47.436;18.876;2022-08-21T07:46:12;5.87;;;3.97;;
48181;SDS011;33976;47.436;18.876;2022-08-21T07:48:40;6.25;;;3.50;;
48181;SDS011;33976;47.436;18.876;2022-08-21T07:51:10;6.43;;;4.20;;
48181;SDS011;33976;47.436;18.876;2022-08-21T07:53:39;8.77;;;5.18;;
48181;SDS011;33976;47.436;18.876;2022-08-21T07:56:08;11.43;;;4.43;;
48181;SDS011;33976;47.436;18.876;2022-08-21T07:58:38;7.60;;;4.30;;
48181;SDS011;33976;47.436;18.876;2022-08-21T08:01:06;6.78;;;4.22;;
48181;SDS011;33976;47.436;18.876;2022-08-21T08:03:35;5.90;;;4.18;;
48181;SDS011;33976;47.436;18.876;2022-08-21T08:06:03;7.47;;;4.57;;
48181;SDS011;33976;47.436;18.876;2022-08-21T08:08:32;6.95;;;4.22;;
48181;SDS011;33976;47.436;18.876;2022-08-21T08:11:00;6.20;;;4.03;;
48181;SDS011;33976;47.436;18.876;2022-08-21T08:13:28;7.20;;;4.53;;
48181;SDS011;33976;47.436;18.876;2022-08-21T08:15:56;8.60;;;4.47;;
48181;SDS011;33976;47.436;18.876;2022-08-21T08:18:24;6.80;;;4.28;;
48181;SDS011;33976;47.436;18.876;2022-08-21T08:20:52;5.80;;;3.90;;
48181;SDS011;33976;47.436;18.876;2022-08-21T08:23:20;6.68;;;4.25;;
48181;SDS011;33976;47.436;18.876;2022-08-21T08:25:48;6.53;;;4.37;;
48181;SDS011;33976;47.436;18.876;2022-08-21T08:28:16;6.80;;;3.78;;
48181;SDS011;33976;47.436;18.876;2022-08-21T08:30:45;10.52;;;4.15;;
48181;SDS011;33976;47.436;18.876;2022-08-21T08:33:14;7.62;;;4.15;;
48181;SDS011;33976;47.436;18.876;2022-08-21T08:35:44;5.45;;;3.65;;
48181;SDS011;33976;47.436;18.876;2022-08-21T08:38:15;7.65;;;4.53;;
48181;SDS011;33976;47.436;18.876;2022-08-21T08:43:20;7.45;;;4.70;;
48181;SDS011;33976;47.436;18.876;2022-08-21T08:45:49;7.00;;;4.45;;
48181;SDS011;33976;47.436;18.876;2022-08-21T08:48:26;7.60;;;5.18;;
48181;SDS011;33976;47.436;18.876;2022-08-21T08:51:13;7.15;;;4.72;;
48181;SDS011;33976;47.436;18.876;2022-08-21T08:54:01;8.70;;;4.60;;
48181;SDS011;33976;47.436;18.876;2022-08-21T08:56:33;6.32;;;4.37;;
48181;SDS011;33976;47.436;18.876;2022-08-21T08:59:03;9.77;;;5.32;;
48181;SDS011;33976;47.436;18.876;2022-08-21T09:01:36;7.35;;;4.68;;
48181;SDS011;33976;47.436;18.876;2022-08-21T09:04:05;10.38;;;4.50;;
48181;SDS011;33976;47.436;18.876;2022-08-21T09:09:43;11.07;;;5.28;;
48181;SDS011;33976;47.436;18.876;2022-08-21T09:12:34;7.50;;;4.40;;
48181;SDS011;33976;47.436;18.876;2022-08-21T09:15:24;7.10;;;4.57;;
48181;SDS011;33976;47.436;18.876;2022-08-21T09:21:02;8.10;;;4.47;;
48181;SDS011;33976;47.436;18.876;2022-08-21T09:26:13;6.22;;;3.90;;
48181;SDS011;33976;47.436;18.876;2022-08-21T09:28:53;10.57;;;4.28;;
48181;SDS011;33976;47.436;18.876;2022-08-21T09:31:30;6.12;;;3.87;;
48181;SDS011;33976;47.436;18.876;2022-08-21T09:34:02;6.78;;;4.10;;
48181;SDS011;33976;47.436;18.876;2022-08-21T09:36:41;7.18;;;4.68;;
48181;SDS011;33976;47.436;18.876;2022-08-21T09:39:12;6.15;;;4.40;;
48181;SDS011;33976;47.436;18.876;2022-08-21T09:41:54;6.55;;;4.18;;
48181;SDS011;33976;47.436;18.876;2022-08-21T09:44:27;11.23;;;4.12;;
48181;SDS011;33976;47.436;18.876;2022-08-21T09:46:57;6.87;;;4.40;;
48181;SDS011;33976;47.436;18.876;2022-08-21T09:52:04;6.82;;;4.35;;
48181;SDS011;33976;47.436;18.876;2022-08-21T09:54:39;7.57;;;4.65;;
48181;SDS011;33976;47.436;18.876;2022-08-21T09:59:55;7.07;;;4.28;;
48181;SDS011;33976;47.436;18.876;2022-08-21T10:07:30;7.22;;;4.68;;
48181;SDS011;33976;47.436;18.876;2022-08-21T10:09:59;7.90;;;4.20;;
48181;SDS011;33976;47.436;18.876;2022-08-21T10:12:42;6.80;;;4.32;;
48181;SDS011;33976;47.436;18.876;2022-08-21T10:15:39;6.37;;;4.15;;
48181;SDS011;33976;47.436;18.876;2022-08-21T10:20:55;6.60;;;4.18;;
48181;SDS011;33976;47.436;18.876;2022-08-21T10:23:57;6.43;;;4.00;;
48181;SDS011;33976;47.436;18.876;2022-08-21T10:27:22;7.95;;;4.03;;
48181;SDS011;33976;47.436;18.876;2022-08-21T10:30:06;7.10;;;3.85;;
48181;SDS011;33976;47.436;18.876;2022-08-21T10:35:30;9.32;;;4.40;;
48181;SDS011;33976;47.436;18.876;2022-08-21T10:41:35;6.07;;;3.83;;
48181;SDS011;33976;47.436;18.876;2022-08-21T10:47:22;9.60;;;5.03;;
48181;SDS011;33976;47.436;18.876;2022-08-21T10:50:09;7.15;;;4.18;;
48181;SDS011;33976;47.436;18.876;2022-08-21T10:55:33;10.23;;;4.87;;
48181;SDS011;33976;47.436;18.876;2022-08-21T10:58:07;7.45;;;4.72;;
48181;SDS011;33976;47.436;18.876;2022-08-21T11:00:45;11.32;;;4.60;;
48181;SDS011;33976;47.436;18.876;2022-08-21T11:06:07;8.13;;;4.80;;
48181;SDS011;33976;47.436;18.876;2022-08-21T11:08:45;6.25;;;4.32;;
48181;SDS011;33976;47.436;18.876;2022-08-21T11:11:36;7.68;;;4.75;;
48181;SDS011;33976;47.436;18.876;2022-08-21T11:14:21;7.78;;;4.30;;
48181;SDS011;33976;47.436;18.876;2022-08-21T11:16:58;7.05;;;4.10;;
48181;SDS011;33976;47.436;18.876;2022-08-21T11:19:42;6.05;;;3.80;;
48181;SDS011;33976;47.436;18.876;2022-08-21T11:25:11;7.18;;;4.05;;
48181;SDS011;33976;47.436;18.876;2022-08-21T11:27:47;8.77;;;3.85;;
48181;SDS011;33976;47.436;18.876;2022-08-21T11:30:18;5.60;;;3.42;;
48181;SDS011;33976;47.436;18.876;2022-08-21T11:35:32;6.62;;;4.05;;
48181;SDS011;33976;47.436;18.876;2022-08-21T11:38:12;7.30;;;4.90;;
48181;SDS011;33976;47.436;18.876;2022-08-21T11:41:07;8.30;;;4.20;;
48181;SDS011;33976;47.436;18.876;2022-08-21T11:46:13;5.65;;;3.58;;
48181;SDS011;33976;47.436;18.876;2022-08-21T11:51:48;11.55;;;4.35;;
48181;SDS011;33976;47.436;18.876;2022-08-21T11:56:58;6.78;;;4.37;;
48181;SDS011;33976;47.436;18.876;2022-08-21T11:59:39;6.40;;;4.03;;
48181;SDS011;33976;47.436;18.876;2022-08-21T12:02:15;9.52;;;4.28;;
48181;SDS011;33976;47.436;18.876;2022-08-21T12:04:48;5.78;;;3.95;;
48181;SDS011;33976;47.436;18.876;2022-08-21T12:07:32;6.70;;;3.70;;
48181;SDS011;33976;47.436;18.876;2022-08-21T12:10:00;6.95;;;3.90;;
48181;SDS011;33976;47.436;18.876;2022-08-21T12:12:31;7.03;;;4.37;;
48181;SDS011;33976;47.436;18.876;2022-08-21T12:17:57;8.40;;;4.95;;
48181;SDS011;33976;47.436;18.876;2022-08-21T12:20:45;7.20;;;4.12;;
48181;SDS011;33976;47.436;18.876;2022-08-21T12:23:28;7.90;;;4.55;;
48181;SDS011;33976;47.436;18.876;2022-08-21T12:26:33;6.22;;;3.78;;
48181;SDS011;33976;47.436;18.876;2022-08-21T12:29:10;6.75;;;4.18;;
48181;SDS011;33976;47.436;18.876;2022-08-21T12:34:17;7.20;;;4.50;;
48181;SDS011;33976;47.436;18.876;2022-08-21T12:37:06;6.65;;;3.80;;
48181;SDS011;33976;47.436;18.876;2022-08-21T12:39:43;5.40;;;3.70;;
48181;SDS011;33976;47.436;18.876;2022-08-21T12:42:20;5.40;;;3.90;;
48181;SDS011;33976;47.436;18.876;2022-08-21T12:45:00;5.68;;;3.37;;
48181;SDS011;33976;47.436;18.876;2022-08-21T12:47:36;6.95;;;3.20;;
48181;SDS011;33976;47.436;18.876;2022-08-21T12:50:15;5.75;;;3.40;;
48181;SDS011;33976;47.436;18.876;2022-08-21T12:52:55;5.80;;;3.40;;
48181;SDS011;33976;47.436;18.876;2022-08-21T12:55:30;5.70;;;3.87;;
48181;SDS011;33976;47.436;18.876;2022-08-21T12:58:00;5.18;;;3.40;;
48181;SDS011;33976;47.436;18.876;2022-08-21T13:00:29;5.30;;;3.00;;
48181;SDS011;33976;47.436;18.876;2022-08-21T13:02:57;6.43;;;3.60;;
48181;SDS011;33976;47.436;18.876;2022-08-21T13:07:54;4.55;;;3.17;;
48181;SDS011;33976;47.436;18.876;2022-08-21T13:10:24;5.60;;;3.30;;
48181;SDS011;33976;47.436;18.876;2022-08-21T13:12:55;4.78;;;3.12;;
48181;SDS011;33976;47.436;18.876;2022-08-21T13:15:31;4.43;;;3.08;;
48181;SDS011;33976;47.436;18.876;2022-08-21T13:18:02;4.68;;;2.92;;
48181;SDS011;33976;47.436;18.876;2022-08-21T13:20:36;4.72;;;2.92;;
48181;SDS011;33976;47.436;18.876;2022-08-21T13:23:08;7.10;;;2.67;;
48181;SDS011;33976;47.436;18.876;2022-08-21T13:25:48;3.97;;;2.62;;
48181;SDS011;33976;47.436;18.876;2022-08-21T13:28:17;4.45;;;2.67;;
48181;SDS011;33976;47.436;18.876;2022-08-21T13:30:55;5.95;;;2.85;;
48181;SDS011;33976;47.436;18.876;2022-08-21T13:33:23;4.65;;;2.40;;
48181;SDS011;33976;47.436;18.876;2022-08-21T13:36:05;5.05;;;2.87;;
48181;SDS011;33976;47.436;18.876;2022-08-21T13:38:47;4.37;;;2.85;;
48181;SDS011;33976;47.436;18.876;2022-08-21T13:41:19;3.58;;;2.50;;
48181;SDS011;33976;47.436;18.876;2022-08-21T13:43:51;3.72;;;2.78;;
48181;SDS011;33976;47.436;18.876;2022-08-21T13:46:26;4.43;;;2.60;;
48181;SDS011;33976;47.436;18.876;2022-08-21T13:48:58;3.35;;;2.22;;
48181;SDS011;33976;47.436;18.876;2022-08-21T13:51:27;3.78;;;2.40;;
48181;SDS011;33976;47.436;18.876;2022-08-21T13:53:55;3.95;;;2.60;;
48181;SDS011;33976;47.436;18.876;2022-08-21T13:56:26;5.05;;;2.12;;
48181;SDS011;33976;47.436;18.876;2022-08-21T13:59:00;3.53;;;2.60;;
48181;SDS011;33976;47.436;18.876;2022-08-21T14:01:49;3.17;;;2.40;;
48181;SDS011;33976;47.436;18.876;2022-08-21T14:05:07;4.57;;;2.30;;
48181;SDS011;33976;47.436;18.876;2022-08-21T14:07:36;4.18;;;2.40;;
48181;SDS011;33976;47.436;18.876;2022-08-21T14:10:11;3.47;;;2.55;;
48181;SDS011;33976;47.436;18.876;2022-08-21T14:15:25;7.40;;;2.30;;
48181;SDS011;33976;47.436;18.876;2022-08-21T14:18:16;3.90;;;2.00;;
48181;SDS011;33976;47.436;18.876;2022-08-21T14:20:45;2.30;;;1.80;;
48181;SDS011;33976;47.436;18.876;2022-08-21T14:23:23;4.30;;;1.90;;
48181;SDS011;33976;47.436;18.876;2022-08-21T14:25:53;2.58;;;1.83;;
48181;SDS011;33976;47.436;18.876;2022-08-21T14:28:28;3.15;;;1.90;;
48181;SDS011;33976;47.436;18.876;2022-08-21T14:33:45;2.60;;;1.80;;
48181;SDS011;33976;47.436;18.876;2022-08-21T14:36:15;2.65;;;1.80;;
48181;SDS011;33976;47.436;18.876;2022-08-21T14:38:43;3.60;;;2.00;;
48181;SDS011;33976;47.436;18.876;2022-08-21T14:41:18;2.08;;;1.67;;
48181;SDS011;33976;47.436;18.876;2022-08-21T14:43:51;3.45;;;2.22;;
48181;SDS011;33976;47.436;18.876;2022-08-21T14:46:36;5.25;;;1.80;;
48181;SDS011;33976;47.436;18.876;2022-08-21T14:49:24;2.33;;;1.60;;
48181;SDS011;33976;47.436;18.876;2022-08-21T14:51:57;2.72;;;2.05;;
48181;SDS011;33976;47.436;18.876;2022-08-21T14:54:26;4.55;;;2.20;;
48181;SDS011;33976;47.436;18.876;2022-08-21T14:56:58;3.10;;;2.17;;
48181;SDS011;33976;47.436;18.876;2022-08-21T14:59:34;5.80;;;2.28;;
48181;SDS011;33976;47.436;18.876;2022-08-21T15:02:03;3.30;;;2.10;;
48181;SDS011;33976;47.436;18.876;2022-08-21T15:04:32;2.25;;;1.90;;
48181;SDS011;33976;47.436;18.876;2022-08-21T15:07:01;3.80;;;2.05;;
48181;SDS011;33976;47.436;18.876;2022-08-21T15:09:29;2.95;;;2.33;;
48181;SDS011;33976;47.436;18.876;2022-08-21T15:11:57;3.33;;;2.20;;
48181;SDS011;33976;47.436;18.876;2022-08-21T15:14:28;2.97;;;2.03;;
48181;SDS011;33976;47.436;18.876;2022-08-21T15:16:58;2.55;;;2.00;;
48181;SDS011;33976;47.436;18.876;2022-08-21T15:19:26;3.17;;;2.00;;
48181;SDS011;33976;47.436;18.876;2022-08-21T15:21:57;4.65;;;2.10;;
48181;SDS011;33976;47.436;18.876;2022-08-21T15:24:25;2.50;;;1.90;;
48181;SDS011;33976;47.436;18.876;2022-08-21T15:26:54;2.90;;;1.75;;
48181;SDS011;33976;47.436;18.876;2022-08-21T15:29:23;3.12;;;2.28;;
48181;SDS011;33976;47.436;18.876;2022-08-21T15:31:57;3.33;;;2.37;;
48181;SDS011;33976;47.436;18.876;2022-08-21T15:34:27;3.25;;;2.22;;
48181;SDS011;33976;47.436;18.876;2022-08-21T15:36:57;3.72;;;2.58;;
48181;SDS011;33976;47.436;18.876;2022-08-21T15:39:26;3.10;;;2.30;;
48181;SDS011;33976;47.436;18.876;2022-08-21T15:41:57;3.15;;;2.28;;
48181;SDS011;33976;47.436;18.876;2022-08-21T15:44:29;2.80;;;2.20;;
48181;SDS011;33976;47.436;18.876;2022-08-21T15:46:58;3.12;;;2.03;;
48181;SDS011;33976;47.436;18.876;2022-08-21T15:49:26;3.15;;;2.15;;
48181;SDS011;33976;47.436;18.876;2022-08-21T15:51:54;3.12;;;2.20;;
48181;SDS011;33976;47.436;18.876;2022-08-21T15:54:23;2.97;;;2.30;;
48181;SDS011;33976;47.436;18.876;2022-08-21T15:56:51;4.82;;;2.08;;
48181;SDS011;33976;47.436;18.876;2022-08-21T15:59:19;2.67;;;1.90;;
48181;SDS011;33976;47.436;18.876;2022-08-21T16:01:50;2.65;;;1.90;;
48181;SDS011;33976;47.436;18.876;2022-08-21T16:04:24;3.55;;;2.20;;
48181;SDS011;33976;47.436;18.876;2022-08-21T16:06:54;3.72;;;2.10;;
48181;SDS011;33976;47.436;18.876;2022-08-21T16:09:30;2.75;;;2.20;;
48181;SDS011;33976;47.436;18.876;2022-08-21T16:11:59;4.80;;;2.45;;